Time;durP1;ratioP1;P1;durP2;ratioP2;P2;SDS_P1;SDS_P2;PMS_P1;PMS_P2;Temp;Humidity;BMP_temperature;BMP_pressure;BME280_temperature;BME280_humidity;BME280_pressure;Samples;Min_cycle;Max_cycle;Signal;HPM_P1;HPM_P2
2023/09/04 00:01:02;;;;;;;8.45;5.67;;;;;;;15.98;61.98;100846.02;1682664;83;21411;-53
2023/09/04 00:04:07;;;;;;;8.03;5.80;;;;;;;15.94;62.09;100838.34;1750284;81;21359;-52
2023/09/04 00:07:14;;;;;;;9.20;5.95;;;;;;;15.92;62.27;100839.92;1684235;83;21370;-52
2023/09/04 00:10:20;;;;;;;9.35;5.58;;;;;;;15.92;62.38;100845.45;1750176;82;21332;-52
2023/09/04 00:13:25;;;;;;;8.03;5.60;;;;;;;15.90;62.41;100840.64;1688511;83;21875;-54
2023/09/04 00:16:31;;;;;;;9.33;5.72;;;;;;;15.91;62.45;100840.13;1757869;81;21793;-53
2023/09/04 00:19:38;;;;;;;8.65;6.22;;;;;;;15.85;62.39;100841.80;1757976;81;21749;-53
2023/09/04 00:22:44;;;;;;;7.62;5.80;;;;;;;15.81;62.40;100855.65;1688302;83;21224;-53
2023/09/04 00:25:51;;;;;;;8.50;5.72;;;;;;;15.76;62.47;100841.58;1686099;83;21284;-54
2023/09/04 00:28:56;;;;;;;12.70;6.28;;;;;;;15.73;62.54;100837.84;1758041;81;21271;-53
2023/09/04 00:32:02;;;;;;;8.23;5.70;;;;;;;15.71;62.61;100831.69;1685743;83;21735;-54
2023/09/04 00:35:08;;;;;;;8.70;5.87;;;;;;;15.67;62.67;100829.48;1758029;81;21208;-54
2023/09/04 00:38:14;;;;;;;7.45;5.83;;;;;;;15.63;62.82;100833.20;1757954;81;21769;-52
2023/09/04 00:41:21;;;;;;;9.65;6.35;;;;;;;15.62;62.94;100841.67;1758039;81;21840;-53
2023/09/04 00:44:28;;;;;;;11.35;5.72;;;;;;;15.61;63.04;100833.91;1758008;81;21426;-54
2023/09/04 00:47:35;;;;;;;8.15;6.10;;;;;;;15.60;63.11;100834.94;1758082;81;21236;-52
2023/09/04 00:50:41;;;;;;;8.48;5.65;;;;;;;15.58;63.16;100843.97;1685186;83;21229;-53
2023/09/04 00:53:47;;;;;;;8.60;5.83;;;;;;;15.57;63.29;100841.41;1700912;83;21383;-53
2023/09/04 00:56:54;;;;;;;12.78;5.67;;;;;;;15.58;63.44;100845.86;1700959;83;21391;-54
2023/09/04 01:00:00;;;;;;;10.45;6.22;;;;;;;15.57;63.46;100839.48;1700933;83;21395;-52
2023/09/04 01:03:06;;;;;;;10.08;5.87;;;;;;;15.58;63.54;100844.48;1690367;83;21246;-53
2023/09/04 01:06:13;;;;;;;7.40;5.97;;;;;;;15.54;63.56;100849.53;1701054;83;21399;-52
2023/09/04 01:09:19;;;;;;;8.93;5.92;;;;;;;15.54;63.66;100852.30;1668341;85;21225;-53
2023/09/04 01:12:29;;;;;;;7.87;5.92;;;;;;;15.54;63.81;100845.39;1701088;83;21384;-54
2023/09/04 01:15:35;;;;;;;8.33;6.08;;;;;;;15.54;63.85;100842.64;1701043;84;21371;-53
2023/09/04 01:18:40;;;;;;;10.38;5.75;;;;;;;15.55;63.99;100838.84;1701150;83;21383;-52
2023/09/04 01:21:46;;;;;;;8.03;5.87;;;;;;;15.57;64.11;100839.48;1700773;84;21407;-52
2023/09/04 01:24:53;;;;;;;9.48;5.95;;;;;;;15.58;64.11;100839.83;1700902;84;21411;-52
2023/09/04 01:28:12;;;;;;;7.72;6.20;;;;;;;15.59;64.09;100838.77;1685567;84;21937;-52
2023/09/04 01:31:37;;;;;;;9.83;6.05;;;;;;;15.56;64.15;100839.16;1696486;82;21388;-52
2023/09/04 01:34:54;;;;;;;8.65;5.83;;;;;;;15.52;64.07;100848.91;1697294;83;21269;-53
2023/09/04 01:38:00;;;;;;;9.00;6.60;;;;;;;15.45;64.11;100848.48;1697820;83;21889;-53
2023/09/04 01:41:06;;;;;;;8.15;6.00;;;;;;;15.39;64.17;100850.13;1696825;84;21399;-53
2023/09/04 01:44:14;;;;;;;8.70;6.28;;;;;;;15.35;64.19;100851.52;1697059;83;21437;-52
2023/09/04 01:47:21;;;;;;;9.33;6.37;;;;;;;15.31;64.25;100852.11;1696801;83;21428;-52
2023/09/04 01:50:28;;;;;;;10.95;6.78;;;;;;;15.28;64.30;100846.98;1696597;84;21411;-53
2023/09/04 01:53:35;;;;;;;12.37;6.92;;;;;;;15.23;64.33;100848.09;1696868;84;21388;-53
2023/09/04 01:56:41;;;;;;;11.33;6.53;;;;;;;15.19;64.41;100848.16;1696761;84;21364;-51
2023/09/04 01:59:46;;;;;;;12.15;6.70;;;;;;;15.18;64.56;100845.92;1696691;84;21872;-52
2023/09/04 02:02:52;;;;;;;9.25;7.08;;;;;;;15.16;64.62;100845.80;1697140;84;21939;-53
2023/09/04 02:05:58;;;;;;;12.43;7.15;;;;;;;15.12;64.67;100845.33;1696725;83;21380;-53
2023/09/04 02:09:07;;;;;;;8.78;6.58;;;;;;;15.10;64.76;100846.03;1696736;83;21387;-52
2023/09/04 02:12:14;;;;;;;9.00;6.47;;;;;;;15.11;64.98;100842.77;1696799;84;21822;-52
2023/09/04 02:15:19;;;;;;;9.60;6.58;;;;;;;15.12;65.05;100842.56;1696731;84;21384;-53
2023/09/04 02:18:26;;;;;;;7.60;6.12;;;;;;;15.10;65.02;100846.55;1696705;83;21399;-53
2023/09/04 02:21:32;;;;;;;8.08;6.15;;;;;;;15.06;65.05;100839.21;1696749;84;21386;-53
2023/09/04 02:24:38;;;;;;;8.33;6.83;;;;;;;15.03;65.08;100845.95;1696742;84;21427;-53
2023/09/04 02:27:46;;;;;;;9.20;6.58;;;;;;;15.00;65.14;100845.47;1696563;84;21459;-53
2023/09/04 02:30:52;;;;;;;8.78;6.53;;;;;;;14.99;65.29;100839.64;1696661;84;21367;-54
2023/09/04 02:33:58;;;;;;;9.28;6.72;;;;;;;14.98;65.41;100838.77;1696454;83;21376;-53
2023/09/04 02:37:07;;;;;;;12.15;6.70;;;;;;;14.99;65.47;100843.27;1696730;84;21360;-53
2023/09/04 02:40:13;;;;;;;8.53;6.53;;;;;;;14.99;65.45;100835.50;1697546;83;21399;-53
2023/09/04 02:43:18;;;;;;;9.00;6.40;;;;;;;14.96;65.42;100837.27;1696777;84;21383;-52
2023/09/04 02:46:23;;;;;;;9.48;5.97;;;;;;;14.92;65.47;100831.28;1696992;84;21364;-53
2023/09/04 02:49:30;;;;;;;11.12;6.83;;;;;;;14.88;65.47;100837.37;1697920;83;21391;-53
2023/09/04 02:52:36;;;;;;;11.65;6.58;;;;;;;14.85;65.55;100835.01;1696610;84;21395;-52
2023/09/04 02:55:43;;;;;;;9.50;6.75;;;;;;;14.83;65.73;100843.98;1696725;83;21440;-54
2023/09/04 02:58:49;;;;;;;8.80;6.78;;;;;;;14.84;65.78;100849.85;1696767;84;21391;-54
2023/09/04 03:01:56;;;;;;;8.78;6.85;;;;;;;14.81;65.75;100845.56;1697509;83;21380;-54
2023/09/04 03:05:02;;;;;;;13.18;6.97;;;;;;;14.76;65.78;100842.52;1696753;84;21885;-52
2023/09/04 03:08:08;;;;;;;10.85;6.87;;;;;;;14.75;65.88;100843.58;1696723;84;21403;-53
2023/09/04 03:11:17;;;;;;;9.95;6.42;;;;;;;14.75;65.97;100848.22;1696688;84;21352;-53
2023/09/04 03:14:23;;;;;;;9.93;6.42;;;;;;;14.77;66.14;100844.25;1696875;84;21442;-53
2023/09/04 03:17:30;;;;;;;9.98;6.30;;;;;;;14.78;66.16;100845.95;1696636;83;21396;-53
2023/09/04 03:20:37;;;;;;;11.83;6.78;;;;;;;14.78;66.18;100842.32;1696765;83;21239;-54
2023/09/04 03:23:43;;;;;;;9.90;6.42;;;;;;;14.80;66.35;100845.24;1696809;83;21379;-54
2023/09/04 03:26:50;;;;;;;9.28;6.50;;;;;;;14.82;66.36;100842.29;1697259;83;21795;-53
2023/09/04 03:29:57;;;;;;;10.80;6.33;;;;;;;14.83;66.36;100853.13;1696695;83;22286;-54
2023/09/04 03:33:04;;;;;;;9.43;6.12;;;;;;;14.83;66.34;100845.37;1697368;82;21419;-53
2023/09/04 03:36:11;;;;;;;10.23;7.17;;;;;;;14.85;66.49;100847.41;1735310;82;21255;-52
2023/09/04 03:39:17;;;;;;;11.93;6.75;;;;;;;14.88;66.58;100852.03;1709882;82;21453;-52
2023/09/04 03:42:23;;;;;;;10.25;7.10;;;;;;;14.90;66.59;100844.94;1703539;84;21192;-53
2023/09/04 03:45:28;;;;;;;9.53;7.30;;;;;;;14.90;66.57;100850.45;1703420;83;21267;-53
2023/09/04 03:48:35;;;;;;;10.65;7.40;;;;;;;14.91;66.60;100853.53;1703692;83;21200;-54
2023/09/04 03:51:41;;;;;;;9.65;7.35;;;;;;;14.92;66.63;100856.09;1703989;83;21845;-53
2023/09/04 03:54:47;;;;;;;12.68;8.35;;;;;;;14.92;66.67;100852.50;1703556;84;21780;-53
2023/09/04 03:57:53;;;;;;;13.15;7.90;;;;;;;14.93;66.72;100856.96;1703568;83;21816;-53
2023/09/04 04:01:04;;;;;;;8.90;7.12;;;;;;;14.95;66.79;100854.88;1703737;83;21219;-54
2023/09/04 04:04:11;;;;;;;10.63;6.85;;;;;;;15.00;66.91;100862.02;1703771;82;22205;-53
2023/09/04 04:07:17;;;;;;;12.23;6.92;;;;;;;15.04;66.95;100867.49;1703634;84;21216;-55
2023/09/04 04:10:24;;;;;;;11.45;6.42;;;;;;;15.07;66.97;100860.73;1704028;83;21344;-54
2023/09/04 04:13:31;;;;;;;14.68;6.72;;;;;;;15.10;67.10;100858.44;1703875;82;21763;-54
2023/09/04 04:16:42;;;;;;;9.53;6.35;;;;;;;15.16;67.19;100854.91;1703687;84;21323;-54
2023/09/04 04:19:49;;;;;;;9.40;6.45;;;;;;;15.21;67.27;100855.19;1703776;84;21389;-54
2023/09/04 04:22:55;;;;;;;9.33;6.70;;;;;;;15.28;67.34;100857.51;1703781;82;21261;-54
2023/09/04 04:26:03;;;;;;;9.68;6.22;;;;;;;15.36;67.42;100861.53;1703764;83;21910;-55
2023/09/04 04:29:12;;;;;;;12.93;6.75;;;;;;;15.43;67.53;100867.98;1703647;82;21358;-54
2023/09/04 04:32:17;;;;;;;9.90;6.20;;;;;;;15.51;67.57;100862.35;1703718;84;21357;-52
2023/09/04 04:35:26;;;;;;;9.93;7.55;;;;;;;15.60;67.62;100861.70;1694596;82;21268;-55
2023/09/04 04:38:32;;;;;;;13.22;8.03;;;;;;;15.66;67.66;100861.78;1712767;82;21205;-54
2023/09/04 04:41:39;;;;;;;8.98;7.00;;;;;;;15.73;67.67;100859.92;1717834;82;21224;-53
2023/09/04 04:44:44;;;;;;;14.63;7.30;;;;;;;15.79;67.71;100867.41;1706214;83;21320;-54
2023/09/04 04:47:52;;;;;;;11.10;7.37;;;;;;;15.88;67.80;100858.48;1704621;83;21252;-53
2023/09/04 04:50:59;;;;;;;10.10;6.33;;;;;;;15.98;67.89;100861.22;1703580;83;21260;-55
2023/09/04 04:54:05;;;;;;;9.70;6.25;;;;;;;16.06;67.91;100853.34;1704722;83;21748;-53
2023/09/04 04:57:14;;;;;;;10.03;6.35;;;;;;;16.13;67.95;100852.33;1705882;82;21212;-55
2023/09/04 05:00:21;;;;;;;11.10;6.55;;;;;;;16.24;68.01;100860.06;1709353;82;21229;-52
2023/09/04 05:03:28;;;;;;;9.70;7.10;;;;;;;16.35;68.08;100855.36;1726924;81;21821;-51
2023/09/04 05:06:33;;;;;;;12.85;6.85;;;;;;;16.44;68.13;100858.33;1699249;83;21257;-55
2023/09/04 05:09:38;;;;;;;10.98;7.72;;;;;;;16.56;68.18;100846.19;1717611;82;21224;-52
2023/09/04 05:12:45;;;;;;;12.90;6.95;;;;;;;16.68;68.24;100859.75;1734502;82;21749;-51
2023/09/04 05:15:52;;;;;;;9.98;6.37;;;;;;;16.80;68.29;100857.27;1734278;82;21285;-51
2023/09/04 05:19:03;;;;;;;12.28;5.95;;;;;;;16.93;68.36;100854.58;1732810;82;21407;-51
2023/09/04 05:22:09;;;;;;;14.15;5.92;;;;;;;17.05;68.42;100857.07;1732203;81;21313;-50
2023/09/04 05:25:16;;;;;;;10.60;5.95;;;;;;;17.17;68.45;100856.82;1722091;81;21288;-51
2023/09/04 05:28:23;;;;;;;8.88;5.30;;;;;;;17.28;68.46;100850.69;1718362;82;21749;-52
2023/09/04 05:31:30;;;;;;;8.48;5.60;;;;;;;17.41;68.48;100855.72;1724140;81;21500;-50
2023/09/04 05:34:39;;;;;;;7.58;5.30;;;;;;;17.55;68.47;100855.27;1702041;82;21273;-51
2023/09/04 05:37:45;;;;;;;7.28;4.80;;;;;;;17.68;68.46;100852.50;1719591;82;21224;-50
2023/09/04 05:40:52;;;;;;;6.67;4.58;;;;;;;17.82;68.45;100858.41;1750354;80;21323;-51
2023/09/04 05:43:57;;;;;;;5.83;4.60;;;;;;;17.94;68.44;100855.33;1733870;81;21309;-51
2023/09/04 05:47:04;;;;;;;7.70;4.75;;;;;;;18.05;68.36;100848.28;1757285;81;21260;-51
2023/09/04 05:50:15;;;;;;;7.00;4.72;;;;;;;18.16;68.29;100854.57;1757519;81;21205;-51
2023/09/04 05:53:24;;;;;;;9.63;4.40;;;;;;;18.28;68.26;100847.34;1755723;81;21248;-50
2023/09/04 05:56:31;;;;;;;6.05;4.30;;;;;;;18.38;68.24;100854.17;1727160;82;21213;-53
2023/09/04 05:59:38;;;;;;;6.80;3.85;;;;;;;18.49;68.19;100854.91;1729398;81;21817;-50
2023/09/04 06:02:45;;;;;;;7.25;4.35;;;;;;;18.60;68.13;100848.70;1736464;81;21233;-51
2023/09/04 06:05:51;;;;;;;7.53;4.65;;;;;;;18.71;68.04;100848.03;1737240;80;21216;-49
2023/09/04 06:08:57;;;;;;;6.95;3.90;;;;;;;18.82;67.96;100841.81;1667679;83;21208;-49
2023/09/04 06:12:02;;;;;;;9.18;5.55;;;;;;;18.93;67.91;100832.80;1753280;81;21373;-50
2023/09/04 06:15:09;;;;;;;6.45;4.05;;;;;;;19.04;67.87;100843.22;1731481;81;21252;-50
2023/09/04 06:18:16;;;;;;;10.53;5.45;;;;;;;19.16;67.81;100841.48;1735176;81;21189;-50
2023/09/04 06:21:21;;;;;;;8.35;4.30;;;;;;;19.25;67.70;100848.48;1735053;81;21283;-51
2023/09/04 06:24:27;;;;;;;9.35;4.80;;;;;;;19.38;67.66;100845.38;1741363;80;21526;-50
2023/09/04 06:27:33;;;;;;;5.65;3.70;;;;;;;19.53;67.61;100850.94;1729185;81;21754;-50
2023/09/04 06:30:39;;;;;;;7.22;4.20;;;;;;;19.65;67.50;100852.45;1719611;82;21771;-50
2023/09/04 06:33:47;;;;;;;8.48;3.60;;;;;;;19.77;67.40;100853.45;1719238;83;21496;-52
2023/09/04 06:36:54;;;;;;;7.87;4.50;;;;;;;19.89;67.31;100842.78;1732904;81;21241;-49
2023/09/04 06:40:00;;;;;;;8.40;4.03;;;;;;;20.02;67.17;100846.00;1733688;82;21379;-51
2023/09/04 06:43:06;;;;;;;8.30;4.47;;;;;;;20.14;67.02;100848.38;1724770;81;21209;-51
2023/09/04 06:46:14;;;;;;;6.58;3.70;;;;;;;20.26;66.92;100838.23;1724143;80;21210;-51
2023/09/04 06:49:19;;;;;;;7.30;3.90;;;;;;;20.38;66.78;100841.44;1727943;82;22178;-54
2023/09/04 06:52:24;;;;;;;6.62;4.60;;;;;;;20.50;66.68;100833.20;1738394;81;21375;-51
2023/09/04 06:55:30;;;;;;;5.67;3.40;;;;;;;20.62;66.54;100843.87;1744013;81;21869;-52
2023/09/04 06:58:35;;;;;;;5.67;3.20;;;;;;;20.76;66.41;100832.90;1732638;80;21741;-50
2023/09/04 07:01:40;;;;;;;9.40;3.52;;;;;;;20.85;66.20;100835.71;1735117;81;21331;-50
2023/09/04 07:04:48;;;;;;;4.75;3.12;;;;;;;20.96;66.02;100835.47;1727895;82;21394;-51
2023/09/04 07:07:55;;;;;;;4.72;3.27;;;;;;;21.05;65.87;100833.56;1727862;82;21741;-51
2023/09/04 07:11:01;;;;;;;9.23;3.83;;;;;;;21.16;65.71;100834.17;1728635;83;21942;-50
2023/09/04 07:14:06;;;;;;;7.58;3.27;;;;;;;21.28;65.51;100839.25;1732488;80;21367;-50
2023/09/04 07:17:13;;;;;;;6.55;2.85;;;;;;;21.37;65.28;100837.86;1733208;80;21204;-51
2023/09/04 07:20:19;;;;;;;7.90;3.00;;;;;;;21.48;65.14;100837.06;1750396;81;21363;-52
2023/09/04 07:23:25;;;;;;;5.67;2.87;;;;;;;21.59;64.87;100843.23;1691606;84;21280;-52
2023/09/04 07:26:30;;;;;;;7.60;2.70;;;;;;;21.68;64.64;100835.36;1733922;80;21399;-51
2023/09/04 07:29:37;;;;;;;9.48;3.08;;;;;;;21.76;64.37;100846.21;1722633;83;21344;-51
2023/09/04 07:32:43;;;;;;;4.90;2.77;;;;;;;21.84;64.14;100850.06;1679440;84;21367;-52
2023/09/04 07:35:49;;;;;;;6.55;3.02;;;;;;;21.91;63.90;100841.89;1740665;81;21257;-51
2023/09/04 07:38:54;;;;;;;6.35;2.60;;;;;;;22.00;63.67;100835.44;1736452;81;21232;-50
2023/09/04 07:42:02;;;;;;;8.15;2.55;;;;;;;22.08;63.42;100840.67;1750812;80;22111;-50
2023/09/04 07:45:07;;;;;;;9.63;2.80;;;;;;;22.17;63.17;100832.25;1686338;83;21219;-51
2023/09/04 07:48:14;;;;;;;5.15;2.60;;;;;;;22.24;62.87;100828.81;1746141;80;21758;-51
2023/09/04 07:51:20;;;;;;;4.47;2.58;;;;;;;22.31;62.62;100833.72;1686220;83;21359;-52
2023/09/04 07:54:27;;;;;;;6.87;2.50;;;;;;;22.37;62.34;100830.52;1738370;81;21360;-51
2023/09/04 07:57:33;;;;;;;7.17;2.50;;;;;;;22.42;62.07;100829.25;1724038;83;21375;-53
2023/09/04 08:00:38;;;;;;;8.93;2.95;;;;;;;22.50;61.87;100832.51;1676578;84;21216;-51
2023/09/04 08:03:46;;;;;;;9.40;2.60;;;;;;;22.57;61.52;100837.47;1724435;83;21280;-53
2023/09/04 08:06:52;;;;;;;5.17;2.58;;;;;;;22.63;61.27;100843.47;1737139;81;21339;-51
2023/09/04 08:09:58;;;;;;;6.72;2.72;;;;;;;22.70;61.02;100843.35;1738202;81;21220;-52
2023/09/04 08:13:03;;;;;;;9.25;3.35;;;;;;;22.74;60.68;100850.16;1757426;80;21197;-53
2023/09/04 08:16:10;;;;;;;7.85;2.62;;;;;;;22.78;60.36;100850.82;1742405;80;21344;-50
2023/09/04 08:19:17;;;;;;;7.35;2.50;;;;;;;22.82;60.08;100847.83;1681562;83;21374;-52
2023/09/04 08:22:23;;;;;;;2.83;2.08;;;;;;;22.86;59.78;100837.02;1747231;80;21537;-53
2023/09/04 08:25:29;;;;;;;6.15;2.45;;;;;;;22.90;59.50;100849.39;1742067;79;21196;-51
2023/09/04 08:28:35;;;;;;;4.22;2.15;;;;;;;22.97;59.26;100854.31;1741982;80;21245;-50
2023/09/04 08:31:42;;;;;;;5.80;2.87;;;;;;;23.01;58.95;100850.78;1757230;80;21193;-50
2023/09/04 08:34:48;;;;;;;5.70;2.58;;;;;;;23.05;58.65;100838.58;1669172;85;21224;-52
2023/09/04 08:38:04;;;;;;;5.28;2.30;;;;;;;23.09;58.35;100853.73;1743364;80;21241;-51
2023/09/04 08:41:12;;;;;;;4.22;2.02;;;;;;;23.13;58.07;100847.97;1724164;82;21374;-51
2023/09/04 08:44:18;;;;;;;3.53;2.07;;;;;;;23.21;57.92;100838.63;1683864;84;21349;-51
2023/09/04 08:47:26;;;;;;;7.55;2.55;;;;;;;23.30;57.66;100842.80;1725216;81;21620;-52
2023/09/04 08:50:31;;;;;;;6.42;2.15;;;;;;;23.36;57.39;100838.14;1730541;82;21379;-51
2023/09/04 08:53:39;;;;;;;3.40;2.12;;;;;;;23.42;57.10;100846.95;1712304;82;21378;-51
2023/09/04 08:56:45;;;;;;;5.33;2.67;;;;;;;23.45;56.79;100845.06;1736638;81;21838;-52
2023/09/04 08:59:51;;;;;;;5.95;2.30;;;;;;;23.48;56.52;100843.98;1685634;84;21213;-51
2023/09/04 09:02:56;;;;;;;6.03;2.42;;;;;;;23.52;56.24;100852.19;1749629;81;21221;-52
2023/09/04 09:06:02;;;;;;;6.50;2.37;;;;;;;23.57;55.96;100842.52;1662812;83;21181;-54
2023/09/04 09:09:07;;;;;;;6.15;2.42;;;;;;;23.63;55.70;100843.45;1644482;86;21201;-56
2023/09/04 09:12:13;;;;;;;3.20;1.80;;;;;;;23.67;55.37;100850.25;1718500;83;21213;-56
2023/09/04 09:15:21;;;;;;;3.35;1.90;;;;;;;23.71;55.12;100850.04;1640324;84;21268;-55
2023/09/04 09:18:47;;;;;;;5.70;1.98;;;;;;;23.75;54.85;100850.39;1677944;84;21538;-57
2023/09/04 09:21:55;;;;;;;3.83;2.10;;;;;;;23.82;54.64;100859.49;1723929;83;21208;-57
2023/09/04 09:25:06;;;;;;;6.92;2.67;;;;;;;23.89;54.35;100858.77;1724203;83;21222;-56
2023/09/04 09:28:13;;;;;;;5.75;2.45;;;;;;;23.98;54.01;100839.09;1724902;82;21363;-56
2023/09/04 09:31:19;;;;;;;3.10;2.08;;;;;;;24.05;53.75;100850.45;1654117;85;21213;-57
2023/09/04 09:34:25;;;;;;;3.80;1.60;;;;;;;24.13;53.54;100852.84;1650308;86;21255;-56
2023/09/04 09:37:33;;;;;;;4.08;2.00;;;;;;;24.20;53.24;100849.30;1701171;83;21196;-57
2023/09/04 09:40:38;;;;;;;7.42;2.00;;;;;;;24.21;52.88;100857.16;1720611;82;21260;-57
2023/09/04 09:43:45;;;;;;;5.00;2.00;;;;;;;24.21;52.62;100861.36;1658085;85;21245;-55
2023/09/04 09:46:50;;;;;;;7.67;2.30;;;;;;;24.25;52.39;100847.99;1719529;83;21221;-55
2023/09/04 09:49:56;;;;;;;4.58;2.10;;;;;;;24.32;52.21;100848.69;1659388;84;21849;-55
2023/09/04 09:53:08;;;;;;;3.40;1.87;;;;;;;24.43;52.01;100846.35;1741894;81;21401;-55
2023/09/04 09:56:13;;;;;;;8.70;2.42;;;;;;;24.55;51.83;100847.09;1739113;82;21868;-53
2023/09/04 09:59:20;;;;;;;5.60;2.08;;;;;;;24.61;51.46;100855.87;1721725;81;21773;-53
2023/09/04 10:02:29;;;;;;;2.80;1.90;;;;;;;24.64;51.17;100845.55;1737779;82;21774;-52
2023/09/04 10:05:35;;;;;;;6.50;2.20;;;;;;;24.67;50.88;100841.44;1735022;81;21197;-53
2023/09/04 10:08:52;;;;;;;7.67;1.85;;;;;;;24.69;50.64;100840.61;1730484;80;21782;-55
2023/09/04 10:12:02;;;;;;;10.58;2.62;;;;;;;24.77;50.53;100848.58;1734730;81;21206;-53
2023/09/04 10:15:07;;;;;;;8.25;2.22;;;;;;;24.85;50.29;100855.14;1678851;84;21199;-54
2023/09/04 10:18:28;;;;;;;4.58;2.30;;;;;;;24.92;50.05;100841.27;1724642;83;21403;-56
2023/09/04 10:21:35;;;;;;;4.53;2.30;;;;;;;24.97;49.74;100844.69;1723123;83;21743;-52
2023/09/04 10:24:57;;;;;;;10.53;2.47;;;;;;;25.01;49.44;100848.11;1737318;81;21339;-55
2023/09/04 10:28:11;;;;;;;4.65;2.37;;;;;;;25.04;49.21;100852.33;1707596;80;21531;-54
2023/09/04 10:31:19;;;;;;;4.05;2.22;;;;;;;25.06;48.94;100848.73;1669657;84;21324;-55
2023/09/04 10:34:24;;;;;;;7.85;2.30;;;;;;;25.11;48.74;100847.95;1733278;80;21217;-56
2023/09/04 10:37:34;;;;;;;6.15;2.92;;;;;;;25.15;48.55;100842.95;1733976;80;21850;-55
2023/09/04 10:40:41;;;;;;;4.45;2.10;;;;;;;25.20;48.31;100845.01;1675501;84;21750;-51
2023/09/04 10:43:52;;;;;;;3.52;2.17;;;;;;;25.25;48.11;100840.30;1740157;80;21276;-52
2023/09/04 10:47:02;;;;;;;3.62;2.10;;;;;;;25.32;47.98;100848.52;1670479;84;21280;-50
2023/09/04 10:50:15;;;;;;;3.85;2.30;;;;;;;25.44;47.91;100847.84;1738958;80;21185;-54
2023/09/04 10:53:28;;;;;;;3.47;2.30;;;;;;;25.56;47.69;100843.78;1724612;80;22130;-54
2023/09/04 10:56:35;;;;;;;4.15;2.12;;;;;;;25.59;47.40;100833.48;1758639;80;21805;-46
2023/09/04 11:00:04;;;;;;;6.87;2.70;;;;;;;25.64;47.23;100834.08;1733084;80;21813;-55
2023/09/04 11:03:27;;;;;;;7.15;2.60;;;;;;;25.75;47.11;100840.09;1744373;80;21562;-53
2023/09/04 11:06:36;;;;;;;3.58;2.22;;;;;;;25.84;46.87;100831.48;1739649;80;21244;-51
2023/09/04 11:09:48;;;;;;;3.77;1.80;;;;;;;25.94;46.75;100838.03;1679565;83;21213;-55
2023/09/04 11:12:55;;;;;;;8.23;2.08;;;;;;;26.02;46.63;100829.75;1727433;80;21739;-54
2023/09/04 11:16:38;;;;;;;5.15;2.15;;;;;;;26.07;46.46;100832.58;1676542;82;21231;-53
2023/09/04 11:19:45;;;;;;;3.52;2.30;;;;;;;26.23;46.30;100838.62;1764591;79;21753;-52
2023/09/04 11:22:56;;;;;;;4.90;2.00;;;;;;;26.37;46.13;100830.03;1707531;82;21284;-52
2023/09/04 11:26:03;;;;;;;6.42;2.27;;;;;;;26.45;45.94;100827.59;1721441;82;21206;-53
2023/09/04 11:29:10;;;;;;;3.62;2.25;;;;;;;26.58;45.80;100834.70;1679688;83;21261;-52
2023/09/04 11:32:18;;;;;;;3.83;2.30;;;;;;;26.70;45.64;100835.40;1679724;84;21241;-51
2023/09/04 11:35:24;;;;;;;5.00;2.27;;;;;;;26.71;45.25;100843.25;1667622;84;21201;-52
2023/09/04 11:38:32;;;;;;;7.22;2.00;;;;;;;26.67;45.01;100831.70;1676023;84;21240;-51
2023/09/04 11:41:37;;;;;;;3.95;2.20;;;;;;;26.61;44.79;100827.72;1687634;83;21257;-59
2023/09/04 11:44:42;;;;;;;8.83;2.08;;;;;;;26.45;44.44;100828.13;1742453;81;21737;-59
2023/09/04 11:47:50;;;;;;;5.72;2.40;;;;;;;26.40;44.38;100830.34;1743961;79;21592;-58
2023/09/04 11:50:58;;;;;;;7.10;1.85;;;;;;;26.45;44.38;100828.13;1736650;81;22088;-58
2023/09/04 11:54:04;;;;;;;4.60;2.00;;;;;;;26.56;44.36;100830.48;1696154;83;21230;-59
2023/09/04 11:57:13;;;;;;;4.12;2.00;;;;;;;26.61;44.12;100839.77;1736003;81;21209;-58
2023/09/04 12:00:21;;;;;;;7.55;2.12;;;;;;;26.58;43.82;100824.02;1695955;84;21225;-57
2023/09/04 12:03:27;;;;;;;5.05;2.10;;;;;;;26.50;43.65;100829.58;1756544;81;21944;-57
2023/09/04 12:06:38;;;;;;;4.45;2.17;;;;;;;26.41;43.45;100811.00;1744660;80;21935;-57
2023/09/04 12:09:44;;;;;;;6.55;2.40;;;;;;;26.40;43.35;100829.53;1710340;80;21209;-59
2023/09/04 12:12:52;;;;;;;5.17;2.37;;;;;;;26.38;43.26;100821.92;1691928;84;21196;-57
2023/09/04 12:15:57;;;;;;;4.25;1.92;;;;;;;26.41;43.27;100829.80;1729248;81;21205;-57
2023/09/04 12:19:03;;;;;;;4.25;2.10;;;;;;;26.45;43.18;100832.34;1742726;81;21213;-56
2023/09/04 12:22:21;;;;;;;3.72;2.45;;;;;;;26.43;42.99;100830.39;1760968;80;21334;-59
2023/09/04 12:25:28;;;;;;;3.92;2.20;;;;;;;26.37;42.87;100826.67;1735209;80;21904;-56
2023/09/04 12:28:34;;;;;;;5.92;2.40;;;;;;;26.37;42.82;100830.03;1756918;80;21208;-57
2023/09/04 12:31:42;;;;;;;3.77;2.20;;;;;;;26.38;42.81;100828.94;1760298;79;21255;-55
2023/09/04 12:34:50;;;;;;;4.55;2.02;;;;;;;26.39;42.71;100823.05;1765840;81;21217;-57
2023/09/04 12:37:55;;;;;;;6.65;2.47;;;;;;;26.39;42.60;100818.84;1743193;81;21296;-55
2023/09/04 12:41:01;;;;;;;4.60;2.20;;;;;;;26.40;42.53;100821.10;1673116;84;21725;-57
2023/09/04 12:44:08;;;;;;;5.70;2.22;;;;;;;26.35;42.41;100823.28;1731845;80;21786;-58
2023/09/04 12:47:13;;;;;;;6.25;2.27;;;;;;;26.32;42.36;100815.40;1762983;81;21362;-57
2023/09/04 12:50:20;;;;;;;5.33;2.62;;;;;;;26.35;42.34;100821.05;1736285;81;21883;-54
2023/09/04 12:53:24;;;;;;;4.50;2.12;;;;;;;26.31;42.22;100820.73;1757294;81;21387;-56
2023/09/04 12:56:30;;;;;;;4.00;2.15;;;;;;;26.25;42.10;100821.81;1748478;81;21461;-58
2023/09/04 12:59:35;;;;;;;4.30;2.00;;;;;;;26.21;42.06;100812.22;1702964;83;21192;-56
2023/09/04 13:02:42;;;;;;;5.37;2.25;;;;;;;26.22;42.09;100815.88;1755050;81;22241;-57
2023/09/04 13:05:48;;;;;;;4.35;2.30;;;;;;;26.23;42.08;100819.83;1726653;82;21259;-57
2023/09/04 13:08:54;;;;;;;5.20;2.87;;;;;;;26.20;41.99;100804.06;1768047;79;21240;-57
2023/09/04 13:12:00;;;;;;;3.83;2.27;;;;;;;26.19;41.95;100812.21;1744159;79;22111;-57
2023/09/04 13:15:06;;;;;;;4.37;2.20;;;;;;;26.23;41.95;100812.81;1741020;80;21367;-57
2023/09/04 13:18:12;;;;;;;5.35;2.27;;;;;;;26.25;41.91;100808.33;1754655;79;21197;-55
2023/09/04 13:21:19;;;;;;;5.28;2.25;;;;;;;26.24;41.87;100817.88;1735763;81;21688;-57
2023/09/04 13:24:27;;;;;;;4.55;2.10;;;;;;;26.21;41.85;100810.81;1698964;82;21927;-56
2023/09/04 13:27:35;;;;;;;5.22;2.75;;;;;;;26.19;41.83;100813.62;1750733;81;21430;-54
2023/09/04 13:30:43;;;;;;;4.20;2.35;;;;;;;26.18;41.88;100807.69;1688180;82;21200;-55
2023/09/04 13:33:49;;;;;;;5.33;2.25;;;;;;;26.20;41.88;100805.47;1665481;85;21244;-57
2023/09/04 13:36:56;;;;;;;4.10;2.40;;;;;;;26.24;41.92;100808.05;1727537;83;21232;-57
2023/09/04 13:40:06;;;;;;;3.62;2.20;;;;;;;26.24;41.89;100806.65;1727207;83;21204;-56
2023/09/04 13:43:14;;;;;;;6.83;4.25;;;;;;;26.26;41.97;100808.06;1688731;84;21763;-56
2023/09/04 13:46:20;;;;;;;6.25;2.55;;;;;;;26.35;41.99;100814.04;1749203;80;21210;-58
2023/09/04 13:49:26;;;;;;;4.83;2.42;;;;;;;26.42;42.02;100797.78;1787763;79;21722;-57
2023/09/04 13:52:32;;;;;;;7.90;2.27;;;;;;;26.53;41.99;100814.17;1771777;80;21204;-55
2023/09/04 13:55:38;;;;;;;6.15;2.70;;;;;;;26.59;41.93;100805.52;1689835;84;21181;-55
2023/09/04 13:58:46;;;;;;;6.30;2.87;;;;;;;26.65;41.85;100796.58;1723380;83;21212;-58
2023/09/04 14:01:54;;;;;;;7.15;3.75;;;;;;;26.67;41.75;100808.41;1684369;83;21750;-56
2023/09/04 14:05:01;;;;;;;5.70;3.30;;;;;;;26.68;41.69;100817.10;1689168;82;21252;-55
2023/09/04 14:08:07;;;;;;;6.40;2.60;;;;;;;26.61;41.58;100811.69;1702492;82;21260;-55
2023/09/04 14:11:14;;;;;;;4.40;2.67;;;;;;;26.39;41.41;100813.22;1708915;82;21256;-53
2023/09/04 14:14:20;;;;;;;8.05;3.15;;;;;;;26.19;41.37;100822.04;1685880;84;21754;-54
2023/09/04 14:17:25;;;;;;;5.35;2.72;;;;;;;26.00;41.35;100823.55;1703609;82;21211;-54
2023/09/04 14:20:31;;;;;;;5.17;2.70;;;;;;;25.84;41.41;100825.33;1705551;82;21297;-53
2023/09/04 14:23:36;;;;;;;5.65;2.37;;;;;;;25.75;41.49;100831.68;1692866;82;21808;-55
2023/09/04 14:26:43;;;;;;;5.83;2.52;;;;;;;25.71;41.59;100827.69;1707037;82;21812;-54
2023/09/04 14:29:49;;;;;;;11.18;5.65;;;;;;;25.75;41.75;100828.88;1685484;83;21789;-55